Airfield :
LOGIN :

Register | Disclaimer

   EN    FR    IT 

 










Legend :    VFR   Marginal VFR   IFR   Intensive IFR   Very Intensive IFR
Visi :
Ceiling :
>= 8 km
>= 3000ft
5 to 8 km
1000 to 3000 ft
1500m to 5 km
500 to 1000 ft
800 to 1500m
200 to 500 ft
< 800m
< 200 ft
Symbols :   Thunderstorms  Fog  Heavy snow  Heavy precipitations  Wind > 20 kt
SIGMETs :     Misc.  Thunderstorms  Icing  Turbulence  Mountain Waves  Volcanic Ashes







- Airport Elevation : 1568 ft


ETSB - Büchel AB

CURRENT METAR :
  • 231720Z 23014KT 9999 -RA FEW010 BKN014 05/03 Q1022 GRN GRN BECMG YLO

EXPIRED METARs :
  • 231620Z 22012KT 9999 FEW010 BKN018 05/03 Q1022 WHT WHT BECMG YLO
  • 231520Z 22013KT 9999 FEW008 SCT010 BKN022 05/03 Q1022 WHT GRN TEMPO BLU

TAF TAF ETSB
Valid from the 23 at 18:00 until the 24 at 03:00 UTC


231728Z 2318/2403 23010KT 6000 NSW FEW005 BKN010
BECMG 2318/2320 23010G22KT 4000 -RA SCT003 BKN006
TEMPO 2320/2403 22012G25KT 2000 DZRA BKN002 OVC005 BY ETGL
No reported NOTAMs for that airfield.



MET'MAP, your aeronautical weather chart ! - Copyright ORBIFLY December 2007 - Disclaimer

ORBIFLY MET'MAP TEAM :

Programming & Development : Alexandra Zaïnal
Concept & Development : Baudouin d'Aumeries
Co-Development & Prog : Marc-Olivier Méhu
Technical & hardware support : Manuel Goepfert

Contact : metmap@orbifly.com




SOURCES & CREDITS :

   NOAA